createdAt,value
2017-07-19T00:00:01.139Z,0
2017-07-19T00:00:41.602Z,0
2017-07-19T00:01:22.069Z,0
2017-07-19T00:02:02.543Z,0
2017-07-19T00:02:43.028Z,0
2017-07-19T00:03:23.539Z,0
2017-07-19T00:04:04.003Z,0
2017-07-19T00:04:44.485Z,0
2017-07-19T00:07:12.442Z,0
2017-07-19T00:07:52.930Z,0
2017-07-19T00:08:33.478Z,0
2017-07-19T00:09:13.930Z,0
2017-07-19T00:09:54.415Z,0
2017-07-19T00:10:34.891Z,0
2017-07-19T00:11:15.417Z,0
2017-07-19T00:11:55.879Z,0
2017-07-19T00:12:36.369Z,0
2017-07-19T00:13:16.875Z,0
2017-07-19T00:13:57.372Z,0
2017-07-19T00:14:37.848Z,0
2017-07-19T00:15:18.300Z,0
2017-07-19T00:15:58.735Z,0
2017-07-19T00:17:56.393Z,0
2017-07-19T00:18:36.898Z,0
2017-07-19T00:19:17.364Z,0
2017-07-19T00:19:57.856Z,0
2017-07-19T00:20:38.361Z,0
2017-07-19T00:21:18.833Z,0
2017-07-19T00:21:59.288Z,0
2017-07-19T00:24:27.300Z,0
2017-07-19T00:25:07.793Z,0
2017-07-19T00:25:48.236Z,0
2017-07-19T00:26:28.725Z,0
2017-07-19T00:27:09.240Z,0
2017-07-19T00:27:49.739Z,0
2017-07-19T00:28:30.209Z,0
2017-07-19T00:29:10.703Z,0
2017-07-19T00:29:51.193Z,0
2017-07-19T00:30:31.695Z,0
2017-07-19T00:31:12.145Z,0
2017-07-19T00:33:45.163Z,0
2017-07-19T00:34:25.654Z,0
2017-07-19T00:35:06.156Z,0
2017-07-19T00:35:46.669Z,0
2017-07-19T00:36:27.137Z,0
2017-07-19T00:37:07.620Z,0
2017-07-19T00:37:48.131Z,0
2017-07-19T00:38:28.610Z,0
2017-07-19T00:39:09.129Z,0
2017-07-19T00:39:49.619Z,0
2017-07-19T00:40:30.056Z,0
2017-07-19T00:41:10.507Z,0
2017-07-19T00:41:51.003Z,0
2017-07-19T00:42:31.470Z,0
2017-07-19T00:43:11.893Z,0
2017-07-19T00:45:24.631Z,0
2017-07-19T00:46:05.135Z,0
2017-07-19T00:46:45.621Z,0
2017-07-19T00:47:26.123Z,0
2017-07-19T00:48:06.582Z,0
2017-07-19T00:48:47.060Z,0
2017-07-19T00:50:44.715Z,0
2017-07-19T00:51:25.207Z,0
2017-07-19T00:52:05.668Z,0
2017-07-19T00:52:46.112Z,0
2017-07-19T00:53:26.592Z,0
2017-07-19T00:54:07.093Z,0
2017-07-19T00:54:47.473Z,0
2017-07-19T00:55:27.961Z,0
2017-07-19T00:56:08.425Z,0
2017-07-19T00:58:06.119Z,0
2017-07-19T00:58:46.575Z,0
2017-07-19T00:59:27.056Z,0
2017-07-19T01:00:07.564Z,0
2017-07-19T01:00:48.046Z,0
2017-07-19T01:01:28.517Z,0
2017-07-19T01:02:08.977Z,0
2017-07-19T01:02:49.439Z,0
2017-07-19T01:06:44.593Z,0
2017-07-19T01:07:25.038Z,0
2017-07-19T01:08:05.529Z,0
2017-07-19T01:08:45.981Z,0
2017-07-19T01:11:13.958Z,0
2017-07-19T01:11:54.477Z,0
2017-07-19T01:12:34.946Z,0
2017-07-19T01:13:15.425Z,0
2017-07-19T01:13:55.913Z,0
2017-07-19T01:14:36.402Z,0
2017-07-19T01:15:16.867Z,0
2017-07-19T01:15:57.331Z,0
2017-07-19T01:18:30.364Z,0
2017-07-19T01:19:10.847Z,0
2017-07-19T01:19:51.296Z,0
2017-07-19T01:20:31.778Z,0
2017-07-19T01:21:12.239Z,0
2017-07-19T01:21:52.725Z,0
2017-07-19T01:22:33.236Z,0
2017-07-19T01:23:13.687Z,0
2017-07-19T01:23:54.154Z,0
2017-07-19T01:24:34.633Z,0
2017-07-19T01:25:15.048Z,0
2017-07-19T01:25:55.554Z,0
2017-07-19T01:26:36.027Z,0
2017-07-19T01:29:03.953Z,0
2017-07-19T01:29:44.431Z,0
2017-07-19T01:30:24.919Z,0
2017-07-19T01:31:05.433Z,0
2017-07-19T01:31:45.862Z,0
2017-07-19T01:32:26.295Z,0
2017-07-19T01:33:06.753Z,0
2017-07-19T01:33:47.202Z,0
2017-07-19T01:34:27.667Z,0
2017-07-19T01:35:08.141Z,0
2017-07-19T01:35:48.641Z,0
2017-07-19T01:36:29.063Z,0
2017-07-19T01:38:46.936Z,0
2017-07-19T01:39:27.308Z,0
2017-07-19T01:40:07.761Z,0
2017-07-19T01:40:48.227Z,0
2017-07-19T01:41:28.653Z,0
2017-07-19T01:42:09.102Z,0
2017-07-19T01:42:49.615Z,0
2017-07-19T01:43:30.064Z,0
2017-07-19T01:44:10.520Z,0
2017-07-19T01:44:50.969Z,0
2017-07-19T01:45:31.418Z,0
2017-07-19T01:46:11.881Z,0
2017-07-19T01:46:52.326Z,0
2017-07-19T01:47:32.790Z,0
2017-07-19T01:48:13.239Z,0
2017-07-19T01:48:53.684Z,0
2017-07-19T01:49:34.161Z,0
2017-07-19T01:50:14.625Z,0
2017-07-19T01:50:55.075Z,0
2017-07-19T01:51:35.546Z,0
2017-07-19T01:53:33.218Z,0
2017-07-19T01:54:13.688Z,0
2017-07-19T01:54:54.149Z,0
2017-07-19T01:55:34.625Z,0
2017-07-19T01:56:15.064Z,0
2017-07-19T01:56:55.494Z,0
2017-07-19T01:57:35.966Z,0
2017-07-19T02:00:08.977Z,0
2017-07-19T02:00:49.461Z,0
2017-07-19T02:03:22.620Z,0
2017-07-19T02:04:03.093Z,0
2017-07-19T02:04:43.623Z,0
2017-07-19T02:05:24.045Z,0
2017-07-19T02:06:04.494Z,0
2017-07-19T02:06:44.945Z,0
2017-07-19T02:07:25.383Z,0
2017-07-19T02:08:05.824Z,0
2017-07-19T02:08:46.296Z,0
2017-07-19T02:09:26.775Z,0
2017-07-19T02:10:07.212Z,0
2017-07-19T02:10:47.692Z,0
2017-07-19T02:11:28.137Z,0
2017-07-19T02:12:08.597Z,0
2017-07-19T02:12:49.077Z,0
2017-07-19T02:13:29.520Z,0
2017-07-19T02:14:10.053Z,0
2017-07-19T02:14:50.470Z,0
2017-07-19T02:15:30.949Z,0
2017-07-19T02:16:11.367Z,0
2017-07-19T02:16:51.818Z,0
2017-07-19T02:17:32.291Z,0
2017-07-19T02:19:45.037Z,0
2017-07-19T02:20:25.516Z,0
2017-07-19T02:21:06.021Z,0
2017-07-19T02:21:46.500Z,0
2017-07-19T02:22:26.958Z,0
2017-07-19T02:23:07.405Z,0
2017-07-19T02:23:47.906Z,0
2017-07-19T02:26:20.945Z,0
2017-07-19T02:27:01.398Z,0
2017-07-19T02:27:41.853Z,0
2017-07-19T02:28:22.300Z,0
2017-07-19T02:29:02.740Z,0
2017-07-19T02:29:43.223Z,0
2017-07-19T02:30:23.702Z,0
2017-07-19T02:32:56.747Z,0
2017-07-19T02:33:37.262Z,0
2017-07-19T02:34:17.711Z,0
2017-07-19T02:34:58.175Z,0
2017-07-19T02:36:55.825Z,0
2017-07-19T02:37:36.308Z,0
2017-07-19T02:38:16.787Z,0
2017-07-19T02:38:57.304Z,0
2017-07-19T02:39:37.777Z,0
2017-07-19T02:40:18.249Z,0
2017-07-19T02:40:58.745Z,0
2017-07-19T02:41:39.166Z,0
2017-07-19T02:42:19.621Z,0
2017-07-19T02:43:00.075Z,0
2017-07-19T02:43:40.508Z,0
2017-07-19T02:44:20.965Z,0
2017-07-19T02:45:01.373Z,0
2017-07-19T02:45:41.888Z,0
2017-07-19T02:46:22.342Z,0
2017-07-19T02:47:02.825Z,0
2017-07-19T02:47:43.301Z,0
2017-07-19T02:48:23.717Z,0
2017-07-19T02:49:04.196Z,0
2017-07-19T02:49:44.678Z,0
2017-07-19T02:50:25.185Z,0
2017-07-19T02:51:05.659Z,0
2017-07-19T02:51:46.146Z,0
2017-07-19T02:52:26.596Z,0
2017-07-19T02:53:07.060Z,0
2017-07-19T02:53:47.536Z,0
2017-07-19T02:54:28.018Z,0
2017-07-19T02:55:08.428Z,0
2017-07-19T02:57:06.080Z,0
2017-07-19T02:57:46.572Z,0
2017-07-19T02:58:27.043Z,0
2017-07-19T02:59:07.518Z,0
2017-07-19T02:59:47.965Z,0
2017-07-19T03:00:28.429Z,0
2017-07-19T03:01:08.940Z,0
2017-07-19T03:01:49.389Z,0
2017-07-19T03:02:29.871Z,0
2017-07-19T03:03:10.320Z,0
2017-07-19T03:03:50.789Z,0
2017-07-19T03:04:31.237Z,0
2017-07-19T03:05:11.696Z,0
2017-07-19T03:05:52.125Z,0
2017-07-19T03:06:32.592Z,0
2017-07-19T03:07:13.059Z,0
2017-07-19T03:07:53.531Z,4
2017-07-19T03:08:33.994Z,4
2017-07-19T03:10:31.629Z,0
2017-07-19T03:11:12.083Z,0
2017-07-19T03:13:40.068Z,4
2017-07-19T03:14:20.556Z,4
2017-07-19T03:15:01.040Z,4
2017-07-19T03:15:41.517Z,4
2017-07-19T03:16:22.031Z,8
2017-07-19T03:17:02.539Z,4
2017-07-19T03:17:43.020Z,8
2017-07-19T03:18:23.530Z,8
2017-07-19T03:19:03.992Z,8
2017-07-19T03:19:44.430Z,8
2017-07-19T03:20:24.907Z,12
2017-07-19T03:22:57.893Z,12
2017-07-19T03:23:38.394Z,16
2017-07-19T03:24:18.862Z,16
2017-07-19T03:24:59.332Z,20
2017-07-19T03:25:39.787Z,20
2017-07-19T03:26:20.227Z,24
2017-07-19T03:27:00.662Z,24
2017-07-19T03:28:58.300Z,28
2017-07-19T03:29:38.778Z,32
2017-07-19T03:30:19.282Z,32
2017-07-19T03:30:59.739Z,36
2017-07-19T03:31:40.223Z,40
2017-07-19T03:34:08.271Z,52
2017-07-19T03:34:48.707Z,56
2017-07-19T03:35:29.180Z,60
2017-07-19T03:36:09.629Z,68
2017-07-19T03:38:22.320Z,88
2017-07-19T03:39:02.812Z,88
2017-07-19T03:39:43.279Z,96
2017-07-19T03:40:23.797Z,104
2017-07-19T03:41:04.255Z,112
2017-07-19T03:41:44.723Z,112
2017-07-19T03:42:25.173Z,120
2017-07-19T03:43:05.646Z,128
2017-07-19T03:43:46.107Z,128
2017-07-19T03:44:26.535Z,136
2017-07-19T03:46:59.601Z,168
2017-07-19T03:47:40.021Z,176
2017-07-19T03:48:20.523Z,184
2017-07-19T03:49:01.049Z,196
2017-07-19T03:49:41.509Z,204
2017-07-19T03:50:21.926Z,212
2017-07-19T03:51:02.387Z,220
2017-07-19T03:51:42.851Z,228
2017-07-19T03:52:23.295Z,240
2017-07-19T03:53:03.826Z,252
2017-07-19T03:55:16.560Z,288
2017-07-19T03:55:57.052Z,300
2017-07-19T03:56:37.522Z,312
2017-07-19T03:57:18.018Z,320
2017-07-19T03:57:58.429Z,332
2017-07-19T03:58:38.868Z,348
2017-07-19T04:00:56.724Z,400
2017-07-19T04:01:37.209Z,412
2017-07-19T04:04:05.126Z,472
2017-07-19T04:04:45.638Z,484
2017-07-19T04:05:26.117Z,500
2017-07-19T04:06:06.621Z,516
2017-07-19T04:06:47.110Z,536
2017-07-19T04:07:27.592Z,556
2017-07-19T04:08:08.055Z,572
2017-07-19T04:08:48.518Z,592
2017-07-19T04:09:28.949Z,612
2017-07-19T04:10:09.419Z,628
2017-07-19T04:10:49.859Z,648
2017-07-19T04:11:30.305Z,668
2017-07-19T04:13:48.100Z,732
2017-07-19T04:14:28.587Z,748
2017-07-19T04:15:09.034Z,768
2017-07-19T04:15:49.536Z,788
2017-07-19T04:16:29.940Z,804
2017-07-19T04:17:10.404Z,824
2017-07-19T04:17:50.873Z,848
2017-07-19T04:18:31.343Z,868
2017-07-19T04:19:11.772Z,892
2017-07-19T04:19:52.227Z,916
2017-07-19T04:22:10.165Z,1008
2017-07-19T04:22:50.622Z,1044
2017-07-19T04:23:31.103Z,1072
2017-07-19T04:24:11.540Z,1108
2017-07-19T04:24:51.999Z,1140
2017-07-19T04:25:32.466Z,1180
2017-07-19T04:26:13.051Z,1208
2017-07-19T04:26:53.487Z,1244
2017-07-19T04:27:33.967Z,1280
2017-07-19T04:28:14.430Z,1312
2017-07-19T04:28:54.878Z,1352
2017-07-19T04:29:35.341Z,1384
2017-07-19T04:30:16.002Z,1420
2017-07-19T04:30:56.456Z,1456
2017-07-19T04:32:54.140Z,1564
2017-07-19T04:33:34.590Z,1604
2017-07-19T04:34:15.073Z,1636
2017-07-19T04:34:55.572Z,1672
2017-07-19T04:35:35.984Z,1708
2017-07-19T04:38:03.965Z,1832
2017-07-19T04:38:44.416Z,1868
2017-07-19T04:39:24.913Z,1908
2017-07-19T04:40:05.406Z,1940
2017-07-19T04:40:45.906Z,1972
2017-07-19T04:41:26.371Z,2008
2017-07-19T04:42:06.819Z,2040
2017-07-19T04:42:47.240Z,2072
2017-07-19T04:43:27.672Z,2104
2017-07-19T04:44:08.180Z,2148
2017-07-19T04:46:26.018Z,2512
2017-07-19T04:47:06.497Z,2632
2017-07-19T04:47:46.979Z,2708
2017-07-19T04:48:27.479Z,2748
2017-07-19T04:51:00.507Z,3000
2017-07-19T04:51:40.947Z,3064
2017-07-19T04:52:21.452Z,3128
2017-07-19T04:54:19.139Z,3288
2017-07-19T04:54:59.613Z,3352
2017-07-19T04:55:40.060Z,3436
2017-07-19T04:57:37.725Z,3656
2017-07-19T04:58:18.182Z,3708
2017-07-19T05:00:18.249Z,3836
2017-07-19T05:00:58.727Z,3900
2017-07-19T05:01:39.188Z,3996
2017-07-19T05:02:19.637Z,4076
2017-07-19T05:03:00.125Z,4152
2017-07-19T05:03:40.581Z,4196
2017-07-19T05:04:21.012Z,4248
2017-07-19T05:06:54.013Z,4412
2017-07-19T05:07:34.479Z,4424
2017-07-19T05:08:15.010Z,4472
2017-07-19T05:08:55.439Z,4556
2017-07-19T05:09:35.908Z,4612
2017-07-19T05:10:16.350Z,4660
2017-07-19T05:10:56.863Z,4700
2017-07-19T05:11:37.317Z,4728
2017-07-19T05:12:17.794Z,4712
2017-07-19T05:12:58.238Z,4552
2017-07-19T05:13:38.679Z,4652
2017-07-19T05:15:51.454Z,4880
2017-07-19T05:16:31.933Z,5144
2017-07-19T05:17:12.385Z,5224
2017-07-19T05:17:52.836Z,5304
2017-07-19T05:18:33.284Z,5368
2017-07-19T05:19:13.723Z,5436
2017-07-19T05:21:11.405Z,5688
2017-07-19T05:21:51.823Z,5776
2017-07-19T05:22:32.295Z,5844
2017-07-19T05:23:12.740Z,5936
2017-07-19T05:23:53.194Z,6032
2017-07-19T05:24:33.659Z,6116
2017-07-19T05:26:51.494Z,6412
2017-07-19T05:27:31.938Z,6520
2017-07-19T05:28:12.398Z,6616
2017-07-19T05:28:52.831Z,6700
2017-07-19T05:29:33.268Z,6688
2017-07-19T05:30:13.760Z,6760
2017-07-19T05:30:54.228Z,6740
2017-07-19T05:31:34.722Z,7052
2017-07-19T05:32:15.168Z,7080
2017-07-19T05:32:55.634Z,7116
2017-07-19T05:33:36.108Z,7184
2017-07-19T05:34:16.554Z,7272
2017-07-19T05:36:14.312Z,7388
2017-07-19T05:36:54.781Z,7460
2017-07-19T05:37:35.188Z,7524
2017-07-19T05:38:15.660Z,7588
2017-07-19T05:38:56.882Z,7656
2017-07-19T05:39:37.393Z,7736
2017-07-19T05:40:17.846Z,7832
2017-07-19T05:40:58.282Z,7928
2017-07-19T05:41:38.759Z,8004
2017-07-19T05:43:51.481Z,8308
2017-07-19T05:44:31.945Z,8416
2017-07-19T05:45:12.410Z,8528
2017-07-19T05:47:10.058Z,8768
2017-07-19T05:47:50.535Z,8912
2017-07-19T05:48:31.006Z,9048
2017-07-19T05:50:28.666Z,9360
2017-07-19T05:51:09.141Z,9492
2017-07-19T05:51:49.614Z,9592
2017-07-19T05:52:30.111Z,9724
2017-07-19T05:53:10.521Z,9828
2017-07-19T05:53:50.953Z,9944
2017-07-19T05:54:31.399Z,10032
2017-07-19T05:55:11.875Z,10196
2017-07-19T05:55:52.336Z,10312
2017-07-19T05:56:32.812Z,10428
2017-07-19T05:57:13.246Z,10532
2017-07-19T05:59:46.268Z,11120
2017-07-19T06:00:26.757Z,11320
2017-07-19T06:01:08.116Z,11452
2017-07-19T06:03:41.199Z,12012
2017-07-19T06:04:21.676Z,12136
2017-07-19T06:06:54.747Z,12744
2017-07-19T06:07:35.207Z,12964
2017-07-19T06:08:15.668Z,13248
2017-07-19T06:08:56.113Z,13468
2017-07-19T06:09:36.578Z,13684
2017-07-19T06:10:17.036Z,13852
2017-07-19T06:10:57.477Z,14100
2017-07-19T06:11:37.962Z,14220
2017-07-19T06:12:18.405Z,14388
2017-07-19T06:12:58.910Z,14532
2017-07-19T06:13:39.339Z,14700
2017-07-19T06:14:19.799Z,14992
2017-07-19T06:16:37.629Z,16032
2017-07-19T06:17:18.123Z,16416
2017-07-19T06:17:58.622Z,16992
2017-07-19T06:18:39.103Z,17472
2017-07-19T06:19:19.632Z,17984
2017-07-19T06:20:00.104Z,18240
2017-07-19T06:20:40.572Z,18496
2017-07-19T06:21:21.023Z,18784
2017-07-19T06:22:01.494Z,19072
2017-07-19T06:24:34.819Z,20800
2017-07-19T06:25:15.279Z,21248
2017-07-19T06:25:55.716Z,21760
2017-07-19T06:26:36.175Z,22240
2017-07-19T06:27:16.636Z,22720
2017-07-19T06:27:57.091Z,23232
2017-07-19T06:28:37.553Z,23744
2017-07-19T06:29:18.020Z,24352
2017-07-19T06:29:58.438Z,24864
2017-07-19T06:30:38.908Z,25376
2017-07-19T06:31:19.343Z,25664
2017-07-19T06:31:59.794Z,26048
2017-07-19T06:32:40.238Z,26368
2017-07-19T06:33:20.727Z,26720
2017-07-19T06:34:01.233Z,26976
2017-07-19T06:34:41.780Z,27008
2017-07-19T06:35:22.233Z,27264
2017-07-19T06:36:02.651Z,27584
2017-07-19T06:36:43.090Z,27808
2017-07-19T06:37:23.545Z,27808
2017-07-19T06:38:04.027Z,28032
2017-07-19T06:38:44.438Z,27968
2017-07-19T06:39:24.986Z,27680
2017-07-19T06:40:05.485Z,27296
2017-07-19T06:40:46.012Z,27296
2017-07-19T06:41:26.469Z,27136
2017-07-19T06:42:06.942Z,26944
2017-07-19T06:42:47.411Z,26624
2017-07-19T06:43:27.903Z,26560
2017-07-19T06:44:08.374Z,26464
2017-07-19T06:44:48.914Z,26272
2017-07-19T06:45:29.393Z,26080
2017-07-19T06:46:09.894Z,25760
2017-07-19T06:46:50.368Z,25024
2017-07-19T06:47:30.815Z,24512
2017-07-19T06:48:11.283Z,24256
2017-07-19T06:50:44.284Z,22496
2017-07-19T06:51:24.788Z,21824
2017-07-19T06:52:05.292Z,21280
2017-07-19T06:52:45.809Z,20864
2017-07-19T06:53:26.345Z,20896
2017-07-19T06:54:06.790Z,21120
2017-07-19T06:54:47.254Z,21280
2017-07-19T06:55:27.725Z,21472
2017-07-19T06:56:08.206Z,28864
2017-07-19T06:56:48.648Z,45120
2017-07-19T06:57:29.137Z,57280
2017-07-19T06:58:09.621Z,63584
2017-07-19T06:58:50.229Z,59648
2017-07-19T06:59:30.846Z,52224
2017-07-19T07:00:11.566Z,47584
2017-07-19T07:00:52.270Z,42656
2017-07-19T07:01:33.664Z,38816
2017-07-19T07:02:14.168Z,41472
2017-07-19T07:02:54.632Z,44032
2017-07-19T07:03:35.070Z,44000
2017-07-19T07:04:15.557Z,45472
2017-07-19T07:04:56.189Z,46176
2017-07-19T07:05:36.614Z,44160
2017-07-19T07:06:17.087Z,41696
2017-07-19T07:06:57.545Z,42016
2017-07-19T07:07:38.003Z,42944
2017-07-19T07:08:18.487Z,45248
2017-07-19T07:08:58.969Z,48864
2017-07-19T07:09:39.408Z,49408
2017-07-19T07:10:19.852Z,48384
2017-07-19T07:11:00.354Z,46880
2017-07-19T07:11:40.820Z,44768
2017-07-19T07:12:21.239Z,43872
2017-07-19T07:13:01.691Z,42336
2017-07-19T07:13:42.164Z,41856
2017-07-19T07:14:22.698Z,41024
2017-07-19T07:15:03.164Z,41376
2017-07-19T07:15:43.638Z,43616
2017-07-19T07:16:24.082Z,45984
2017-07-19T07:17:04.545Z,48864
2017-07-19T07:17:45.006Z,50624
2017-07-19T07:18:25.483Z,47360
2017-07-19T07:19:05.967Z,44736
2017-07-19T07:19:46.457Z,37344
2017-07-19T07:20:26.933Z,26944
2017-07-19T07:21:07.398Z,18304
2017-07-19T07:21:48.558Z,16520
2017-07-19T07:22:29.043Z,16364
2017-07-19T07:23:09.480Z,16296
2017-07-19T07:23:49.950Z,16276
2017-07-19T07:26:17.936Z,16228
2017-07-19T07:26:58.431Z,16204
2017-07-19T07:27:38.947Z,16196
2017-07-19T07:28:19.453Z,16224
2017-07-19T07:28:59.946Z,16256
2017-07-19T07:29:40.429Z,16232
2017-07-19T07:30:20.914Z,16232
2017-07-19T07:31:01.395Z,16216
2017-07-19T07:31:41.949Z,16204
2017-07-19T07:32:22.446Z,16244
2017-07-19T07:33:03.034Z,16292
2017-07-19T07:35:15.779Z,16388
2017-07-19T07:35:56.336Z,16656
2017-07-19T07:36:36.779Z,18528
2017-07-19T07:37:17.276Z,19008
2017-07-19T07:37:57.794Z,18784
2017-07-19T07:38:38.263Z,18336
2017-07-19T07:39:18.744Z,18240
2017-07-19T07:39:59.244Z,18208
2017-07-19T07:40:39.763Z,18080
2017-07-19T07:41:20.305Z,18112
2017-07-19T07:42:00.789Z,18016
2017-07-19T07:42:41.236Z,17888
2017-07-19T07:43:21.720Z,17736
2017-07-19T07:45:34.449Z,17756
2017-07-19T07:46:14.915Z,17736
2017-07-19T07:46:55.448Z,17748
2017-07-19T07:47:35.947Z,17716
2017-07-19T07:48:16.400Z,17668
2017-07-19T07:48:56.860Z,17568
2017-07-19T07:49:37.355Z,17492
2017-07-19T07:50:17.809Z,17388
2017-07-19T07:50:58.257Z,17276
2017-07-19T07:52:55.920Z,17312
2017-07-19T07:53:36.486Z,17676
2017-07-19T07:54:16.999Z,20480
2017-07-19T07:54:57.591Z,27488
2017-07-19T07:57:10.331Z,53504
2017-07-19T07:57:50.950Z,55296
2017-07-19T07:58:31.589Z,56544
2017-07-19T08:00:44.448Z,51776
2017-07-19T08:01:24.970Z,53824
2017-07-19T08:02:05.514Z,59136
2017-07-19T08:02:46.069Z,60576
2017-07-19T08:03:26.543Z,62016
2017-07-19T08:04:07.072Z,62336
2017-07-19T08:04:47.595Z,62176
2017-07-19T08:05:28.116Z,62816
2017-07-19T08:07:25.799Z,66656
2017-07-19T08:08:06.226Z,65440
2017-07-19T08:08:46.729Z,62944
2017-07-19T08:09:27.198Z,61792
2017-07-19T08:10:07.743Z,61600
2017-07-19T08:10:48.278Z,64256
2017-07-19T08:13:01.001Z,69056
2017-07-19T08:13:41.465Z,68384
2017-07-19T08:14:21.965Z,68064
2017-07-19T08:15:02.483Z,67456
2017-07-19T08:15:43.000Z,64992
2017-07-19T08:16:23.457Z,65504
2017-07-19T08:17:03.894Z,68160
2017-07-19T08:17:44.417Z,68992
2017-07-19T08:18:24.896Z,67840
2017-07-19T08:20:22.810Z,64224
2017-07-19T08:21:03.527Z,67200
2017-07-19T08:21:43.997Z,69568
2017-07-19T08:22:24.474Z,69120
2017-07-19T08:23:04.960Z,66112
2017-07-19T08:23:45.399Z,66208
2017-07-19T08:24:25.863Z,66496
2017-07-19T08:25:06.504Z,70976
2017-07-19T08:25:46.882Z,74112
2017-07-19T08:26:27.409Z,78048
2017-07-19T08:27:07.902Z,77024
2017-07-19T08:27:49.241Z,74816
2017-07-19T08:28:29.747Z,69312
2017-07-19T08:29:10.299Z,57760
2017-07-19T08:29:50.781Z,41056
2017-07-19T08:32:23.857Z,20576
2017-07-19T08:33:04.343Z,20512
2017-07-19T08:33:44.807Z,20384
2017-07-19T08:34:25.335Z,20576
2017-07-19T08:35:05.869Z,20544
2017-07-19T08:35:46.401Z,20576
2017-07-19T08:36:26.948Z,20608
2017-07-19T08:38:39.759Z,21696
2017-07-19T08:39:20.236Z,22144
2017-07-19T08:40:00.787Z,28864
2017-07-19T08:40:41.289Z,47232
2017-07-19T08:43:14.367Z,78496
2017-07-19T08:43:54.865Z,82688
2017-07-19T08:44:35.401Z,84576
2017-07-19T08:45:15.883Z,83808
2017-07-19T08:45:56.394Z,82112
2017-07-19T08:46:36.939Z,81312
2017-07-19T08:47:17.539Z,79232
2017-07-19T08:47:58.102Z,80288
2017-07-19T08:48:38.623Z,83200
2017-07-19T08:49:19.136Z,88352
2017-07-19T08:49:59.668Z,87072
2017-07-19T08:50:40.129Z,86816
2017-07-19T08:52:57.996Z,83456
2017-07-19T08:53:38.541Z,82176
2017-07-19T08:54:19.700Z,77664
2017-07-19T08:55:00.185Z,82400
2017-07-19T08:55:40.690Z,78400
2017-07-19T08:56:21.196Z,76736
2017-07-19T08:57:01.671Z,76384
2017-07-19T08:57:42.165Z,79296
2017-07-19T08:59:54.926Z,88544
2017-07-19T09:00:35.484Z,89696
2017-07-19T09:01:15.985Z,84928
2017-07-19T09:01:56.474Z,78624
2017-07-19T09:02:36.987Z,72288
2017-07-19T09:03:17.463Z,73824
2017-07-19T09:03:57.902Z,79776
2017-07-19T09:04:38.418Z,81984
2017-07-19T09:05:18.868Z,78816
2017-07-19T09:05:59.330Z,81984
2017-07-19T09:08:12.125Z,89312
2017-07-19T09:08:52.626Z,93664
2017-07-19T09:09:33.138Z,94432
2017-07-19T09:10:13.616Z,98112
2017-07-19T09:10:54.089Z,97152
2017-07-19T09:11:34.625Z,98528
2017-07-19T09:12:15.210Z,98528
2017-07-19T09:12:55.806Z,97920
2017-07-19T09:13:36.324Z,97440
2017-07-19T09:14:16.801Z,97536
2017-07-19T09:14:57.313Z,98400
2017-07-19T09:15:37.803Z,96352
2017-07-19T09:16:18.298Z,94464
2017-07-19T09:16:58.790Z,94432
2017-07-19T09:17:39.214Z,94464
2017-07-19T09:18:19.724Z,96896
2017-07-19T09:20:32.474Z,99232
2017-07-19T09:21:12.970Z,100288
2017-07-19T09:21:53.570Z,100224
2017-07-19T09:22:34.150Z,101664
2017-07-19T09:23:15.426Z,99968
2017-07-19T09:23:55.990Z,98016
2017-07-19T09:24:36.462Z,97120
2017-07-19T09:26:54.319Z,97856
2017-07-19T09:27:34.882Z,97760
2017-07-19T09:28:15.365Z,95264
2017-07-19T09:28:55.841Z,94528
2017-07-19T09:31:28.991Z,91136
2017-07-19T09:32:09.503Z,90816
2017-07-19T09:32:50.064Z,89120
2017-07-19T09:33:30.530Z,90144
2017-07-19T09:34:11.053Z,90528
2017-07-19T09:34:51.559Z,90016
2017-07-19T09:35:32.093Z,90176
2017-07-19T09:36:13.249Z,90016
2017-07-19T09:36:53.719Z,88352
2017-07-19T09:37:34.276Z,87232
2017-07-19T09:38:14.838Z,88000
2017-07-19T09:38:55.406Z,89888
2017-07-19T09:39:35.890Z,88384
2017-07-19T09:40:16.319Z,86080
2017-07-19T09:42:14.065Z,86432
2017-07-19T09:42:54.525Z,87936
2017-07-19T09:43:34.993Z,89280
2017-07-19T09:44:15.606Z,87680
2017-07-19T09:44:56.167Z,86752
2017-07-19T09:45:36.723Z,73056
2017-07-19T09:46:17.240Z,49568
2017-07-19T09:46:57.730Z,29472
2017-07-19T09:47:38.265Z,23392
2017-07-19T09:48:18.761Z,22720
2017-07-19T09:48:59.222Z,22272
2017-07-19T09:49:39.702Z,21984
2017-07-19T09:50:20.206Z,21696
2017-07-19T09:51:00.699Z,21504
2017-07-19T09:51:41.165Z,21248
2017-07-19T09:52:21.677Z,20992
2017-07-19T09:53:02.159Z,20768
2017-07-19T09:55:35.304Z,19936
2017-07-19T09:56:15.879Z,19808
2017-07-19T09:56:56.381Z,19616
2017-07-19T09:57:36.942Z,19456
2017-07-19T09:58:17.408Z,19296
2017-07-19T09:58:58.084Z,19136
2017-07-19T09:59:38.620Z,18944
2017-07-19T10:00:19.121Z,18752
2017-07-19T10:02:47.159Z,18048
2017-07-19T10:03:27.674Z,17904
2017-07-19T10:04:08.225Z,17712
2017-07-19T10:04:48.682Z,17524
2017-07-19T10:05:29.123Z,17296
2017-07-19T10:08:02.250Z,16304
2017-07-19T10:08:42.746Z,16000
2017-07-19T10:11:10.745Z,15080
2017-07-19T10:11:51.329Z,14432
2017-07-19T10:12:31.993Z,13744
2017-07-19T10:13:12.603Z,13344
2017-07-19T10:13:53.193Z,13144
2017-07-19T10:14:33.726Z,12996
2017-07-19T10:15:14.209Z,12912
2017-07-19T10:15:54.680Z,12836
2017-07-19T10:16:35.212Z,12780
2017-07-19T10:17:15.715Z,12732
2017-07-19T10:17:56.245Z,12676
2017-07-19T10:18:36.720Z,12700
2017-07-19T10:19:17.179Z,12756
2017-07-19T10:19:57.719Z,12836
2017-07-19T10:22:25.740Z,12880
2017-07-19T10:23:06.204Z,12924
2017-07-19T10:23:46.683Z,13020
2017-07-19T10:24:27.205Z,13176
2017-07-19T10:25:07.672Z,13312
2017-07-19T10:25:48.151Z,13408
2017-07-19T10:28:00.923Z,14052
2017-07-19T10:28:41.469Z,14208
2017-07-19T10:29:22.794Z,14540
2017-07-19T10:30:03.263Z,14940
2017-07-19T10:30:43.763Z,15380
2017-07-19T10:31:24.259Z,15684
2017-07-19T10:32:04.729Z,16108
2017-07-19T10:32:45.189Z,16824
2017-07-19T10:33:25.647Z,17532
2017-07-19T10:34:06.111Z,17880
2017-07-19T10:34:46.557Z,18080
2017-07-19T10:35:27.027Z,18040
2017-07-19T10:36:07.550Z,17964
2017-07-19T10:36:48.034Z,17712
2017-07-19T10:37:28.521Z,17292
2017-07-19T10:40:01.634Z,14880
2017-07-19T10:40:42.089Z,14572
2017-07-19T10:41:22.601Z,14268
2017-07-19T10:42:03.107Z,13744
2017-07-19T10:42:43.613Z,13320
2017-07-19T10:43:24.126Z,13336
2017-07-19T10:44:04.656Z,13716
2017-07-19T10:44:45.292Z,14188
2017-07-19T10:45:25.781Z,14668
2017-07-19T10:46:06.251Z,15120
2017-07-19T10:46:46.784Z,15852
2017-07-19T10:48:59.612Z,17656
2017-07-19T10:49:40.057Z,17840
2017-07-19T10:50:20.503Z,17940
2017-07-19T10:52:48.524Z,18720
2017-07-19T10:53:29.052Z,18848
2017-07-19T10:55:26.732Z,19040
2017-07-19T10:56:07.217Z,19072
2017-07-19T10:56:47.679Z,19136
2017-07-19T10:57:28.190Z,19168
2017-07-19T10:58:08.671Z,19200
2017-07-19T10:58:49.155Z,19264
2017-07-19T10:59:29.733Z,19264
2017-07-19T11:00:10.178Z,19264
2017-07-19T11:00:50.854Z,19296
2017-07-19T11:01:31.381Z,19296
2017-07-19T11:02:11.829Z,19328
2017-07-19T11:02:52.387Z,19360
2017-07-19T11:03:32.824Z,19360
2017-07-19T11:04:13.329Z,19296
2017-07-19T11:04:53.764Z,19232
2017-07-19T11:06:51.435Z,19264
2017-07-19T11:07:31.937Z,19264
2017-07-19T11:08:12.777Z,19232
2017-07-19T11:08:53.329Z,19232
2017-07-19T11:09:33.892Z,19168
2017-07-19T11:10:14.462Z,19200
2017-07-19T11:10:54.945Z,19168
2017-07-19T11:11:35.470Z,19072
2017-07-19T11:12:15.919Z,19072
2017-07-19T11:12:56.384Z,19040
2017-07-19T11:13:36.939Z,19040
2017-07-19T11:15:54.861Z,18944
2017-07-19T11:16:35.389Z,18944
2017-07-19T11:17:15.891Z,18944
2017-07-19T11:19:48.969Z,18976
2017-07-19T11:20:29.708Z,18912
2017-07-19T11:21:10.458Z,18912
2017-07-19T11:21:51.204Z,18912
2017-07-19T11:23:48.950Z,19008
2017-07-19T11:24:29.403Z,18976
2017-07-19T11:26:27.141Z,19168
2017-07-19T11:27:07.661Z,19168
2017-07-19T11:27:48.185Z,19200
2017-07-19T11:28:28.618Z,19200
2017-07-19T11:29:09.054Z,19200